sensor_id;sensor_type;location;lat;lon;timestamp;pressure;altitude;pressure_sealevel;temperature;humidity
42761;BME280;31672;47.638;19.026;2022-07-22T00:00:49;100151.47;;;24.80;36.60
42761;BME280;31672;47.638;19.026;2022-07-22T00:05:52;100158.25;;;24.72;36.87
42761;BME280;31672;47.638;19.026;2022-07-22T00:10:55;100159.53;;;24.65;37.42
42761;BME280;31672;47.638;19.026;2022-07-22T00:15:58;100165.19;;;24.53;37.72
42761;BME280;31672;47.638;19.026;2022-07-22T00:21:03;100153.38;;;24.37;37.71
42761;BME280;31672;47.638;19.026;2022-07-22T00:26:13;100154.88;;;24.28;38.00
42761;BME280;31672;47.638;19.026;2022-07-22T00:31:16;100177.63;;;24.22;38.05
42761;BME280;31672;47.638;19.026;2022-07-22T00:36:19;100174.03;;;24.11;38.22
42761;BME280;31672;47.638;19.026;2022-07-22T00:41:22;100167.09;;;23.93;38.78
42761;BME280;31672;47.638;19.026;2022-07-22T00:46:28;100170.28;;;23.90;37.29
42761;BME280;31672;47.638;19.026;2022-07-22T00:51:31;100172.31;;;24.00;36.75
42761;BME280;31672;47.638;19.026;2022-07-22T00:56:35;100167.59;;;24.22;36.15
42761;BME280;31672;47.638;19.026;2022-07-22T01:01:39;100169.94;;;24.41;35.95
42761;BME280;31672;47.638;19.026;2022-07-22T01:06:42;100158.66;;;24.54;35.69
42761;BME280;31672;47.638;19.026;2022-07-22T01:11:48;100168.53;;;24.65;35.93
42761;BME280;31672;47.638;19.026;2022-07-22T01:16:51;100165.56;;;24.72;35.88
42761;BME280;31672;47.638;19.026;2022-07-22T01:21:54;100168.53;;;24.70;36.32
42761;BME280;31672;47.638;19.026;2022-07-22T01:26:58;100162.00;;;24.66;36.77
42761;BME280;31672;47.638;19.026;2022-07-22T01:32:01;100160.34;;;24.60;36.52
42761;BME280;31672;47.638;19.026;2022-07-22T01:37:04;100156.63;;;24.39;37.21
42761;BME280;31672;47.638;19.026;2022-07-22T01:42:07;100158.41;;;24.23;37.89
42761;BME280;31672;47.638;19.026;2022-07-22T01:47:10;100169.16;;;24.13;38.13
42761;BME280;31672;47.638;19.026;2022-07-22T01:52:13;100161.94;;;23.97;38.00
42761;BME280;31672;47.638;19.026;2022-07-22T01:57:16;100171.84;;;23.81;38.79
42761;BME280;31672;47.638;19.026;2022-07-22T02:02:19;100170.53;;;23.62;39.66
42761;BME280;31672;47.638;19.026;2022-07-22T02:07:22;100180.59;;;23.44;39.91
42761;BME280;31672;47.638;19.026;2022-07-22T02:12:27;100195.19;;;23.16;39.45
42761;BME280;31672;47.638;19.026;2022-07-22T02:17:32;100183.97;;;22.91;39.96
42761;BME280;31672;47.638;19.026;2022-07-22T02:22:35;100196.75;;;22.79;39.72
42761;BME280;31672;47.638;19.026;2022-07-22T02:27:40;100202.44;;;22.60;39.94
42761;BME280;31672;47.638;19.026;2022-07-22T02:32:43;100190.41;;;22.51;40.09
42761;BME280;31672;47.638;19.026;2022-07-22T02:37:46;100189.66;;;22.39;40.61
42761;BME280;31672;47.638;19.026;2022-07-22T02:42:49;100191.13;;;22.30;40.72
42761;BME280;31672;47.638;19.026;2022-07-22T02:47:55;100187.28;;;22.26;40.46
42761;BME280;31672;47.638;19.026;2022-07-22T02:52:59;100195.97;;;22.28;41.36
42761;BME280;31672;47.638;19.026;2022-07-22T02:58:06;100187.44;;;22.19;41.25
42761;BME280;31672;47.638;19.026;2022-07-22T03:03:10;100196.63;;;22.06;42.03
42761;BME280;31672;47.638;19.026;2022-07-22T03:08:13;100210.81;;;21.97;42.17
42761;BME280;31672;47.638;19.026;2022-07-22T03:13:15;100206.53;;;21.84;42.86
42761;BME280;31672;47.638;19.026;2022-07-22T03:18:18;100215.50;;;21.73;43.46
42761;BME280;31672;47.638;19.026;2022-07-22T03:23:22;100212.69;;;21.68;43.75
42761;BME280;31672;47.638;19.026;2022-07-22T03:28:24;100214.22;;;21.63;43.66
42761;BME280;31672;47.638;19.026;2022-07-22T03:33:28;100220.84;;;21.56;44.05
42761;BME280;31672;47.638;19.026;2022-07-22T03:38:33;100224.94;;;21.58;43.71
42761;BME280;31672;47.638;19.026;2022-07-22T03:43:37;100227.41;;;21.60;44.27
42761;BME280;31672;47.638;19.026;2022-07-22T03:48:40;100227.41;;;21.60;44.46
42761;BME280;31672;47.638;19.026;2022-07-22T03:53:46;100234.78;;;21.64;44.97
42761;BME280;31672;47.638;19.026;2022-07-22T03:58:51;100234.06;;;21.69;45.02
42761;BME280;31672;47.638;19.026;2022-07-22T04:03:55;100222.44;;;21.69;45.59
42761;BME280;31672;47.638;19.026;2022-07-22T04:09:06;100227.13;;;21.73;45.62
42761;BME280;31672;47.638;19.026;2022-07-22T04:14:10;100240.50;;;21.80;45.60
42761;BME280;31672;47.638;19.026;2022-07-22T04:19:14;100224.84;;;21.82;46.43
42761;BME280;31672;47.638;19.026;2022-07-22T04:24:17;100227.19;;;21.90;47.00
42761;BME280;31672;47.638;19.026;2022-07-22T04:29:20;100223.28;;;21.98;47.57
42761;BME280;31672;47.638;19.026;2022-07-22T04:34:23;100217.59;;;22.11;47.17
42761;BME280;31672;47.638;19.026;2022-07-22T04:39:26;100216.56;;;22.29;47.81
42761;BME280;31672;47.638;19.026;2022-07-22T04:44:30;100224.44;;;22.47;48.09
42761;BME280;31672;47.638;19.026;2022-07-22T04:49:33;100216.06;;;22.65;48.45
42761;BME280;31672;47.638;19.026;2022-07-22T04:54:37;100226.03;;;22.93;47.95
42761;BME280;31672;47.638;19.026;2022-07-22T04:59:40;100220.06;;;23.13;47.46
42761;BME280;31672;47.638;19.026;2022-07-22T05:04:43;100216.56;;;23.35;47.30
42761;BME280;31672;47.638;19.026;2022-07-22T05:09:50;100216.81;;;23.55;46.82
42761;BME280;31672;47.638;19.026;2022-07-22T05:14:53;100215.75;;;23.78;46.27
42761;BME280;31672;47.638;19.026;2022-07-22T05:19:56;100217.41;;;24.06;45.95
42761;BME280;31672;47.638;19.026;2022-07-22T05:25:04;100219.38;;;24.38;45.76
42761;BME280;31672;47.638;19.026;2022-07-22T05:30:10;100217.19;;;24.72;45.20
42761;BME280;31672;47.638;19.026;2022-07-22T05:35:13;100228.00;;;25.04;44.11
42761;BME280;31672;47.638;19.026;2022-07-22T05:40:23;100224.97;;;25.38;42.81
42761;BME280;31672;47.638;19.026;2022-07-22T05:45:27;100228.63;;;25.69;42.43
42761;BME280;31672;47.638;19.026;2022-07-22T05:50:30;100221.91;;;25.97;41.72
42761;BME280;31672;47.638;19.026;2022-07-22T05:55:34;100224.13;;;26.20;41.71
42761;BME280;31672;47.638;19.026;2022-07-22T06:00:38;100235.91;;;26.41;41.26
42761;BME280;31672;47.638;19.026;2022-07-22T06:05:43;100231.81;;;26.59;40.85
42761;BME280;31672;47.638;19.026;2022-07-22T06:10:48;100230.72;;;26.75;40.56
42761;BME280;31672;47.638;19.026;2022-07-22T06:15:51;100230.97;;;26.89;40.30
42761;BME280;31672;47.638;19.026;2022-07-22T06:20:59;100231.50;;;27.01;39.43
42761;BME280;31672;47.638;19.026;2022-07-22T06:26:03;100227.41;;;27.14;37.35
42761;BME280;31672;47.638;19.026;2022-07-22T06:31:07;100227.38;;;27.24;35.68
42761;BME280;31672;47.638;19.026;2022-07-22T06:36:10;100226.78;;;27.37;35.41
42761;BME280;31672;47.638;19.026;2022-07-22T06:41:13;100238.19;;;27.55;35.80
42761;BME280;31672;47.638;19.026;2022-07-22T06:46:17;100231.59;;;27.66;35.14
42761;BME280;31672;47.638;19.026;2022-07-22T06:51:22;100226.06;;;27.81;34.26
42761;BME280;31672;47.638;19.026;2022-07-22T06:56:29;100237.44;;;27.98;34.64
42761;BME280;31672;47.638;19.026;2022-07-22T07:01:32;100228.59;;;28.17;35.42
42761;BME280;31672;47.638;19.026;2022-07-22T07:06:36;100223.59;;;28.24;34.07
42761;BME280;31672;47.638;19.026;2022-07-22T07:11:39;100219.75;;;28.30;33.25
42761;BME280;31672;47.638;19.026;2022-07-22T07:16:45;100226.28;;;28.39;32.95
42761;BME280;31672;47.638;19.026;2022-07-22T07:21:48;100214.22;;;28.40;31.56
42761;BME280;31672;47.638;19.026;2022-07-22T07:26:52;100214.34;;;28.59;30.61
42761;BME280;31672;47.638;19.026;2022-07-22T07:31:55;100212.25;;;28.80;28.98
42761;BME280;31672;47.638;19.026;2022-07-22T07:36:58;100212.66;;;28.97;28.23
42761;BME280;31672;47.638;19.026;2022-07-22T07:42:01;100208.75;;;29.27;28.66
42761;BME280;31672;47.638;19.026;2022-07-22T07:47:05;100204.66;;;29.49;28.87
42761;BME280;31672;47.638;19.026;2022-07-22T07:52:09;100203.53;;;29.74;28.90
42761;BME280;31672;47.638;19.026;2022-07-22T07:57:18;100204.06;;;29.95;28.60
42761;BME280;31672;47.638;19.026;2022-07-22T08:02:21;100201.56;;;30.17;27.90
42761;BME280;31672;47.638;19.026;2022-07-22T08:07:25;100196.22;;;30.26;27.49
42761;BME280;31672;47.638;19.026;2022-07-22T08:12:28;100193.81;;;30.38;27.37
42761;BME280;31672;47.638;19.026;2022-07-22T08:17:33;100190.81;;;30.53;27.88
42761;BME280;31672;47.638;19.026;2022-07-22T08:22:38;100190.97;;;30.76;27.81
42761;BME280;31672;47.638;19.026;2022-07-22T08:27:48;100189.50;;;31.11;26.62
42761;BME280;31672;47.638;19.026;2022-07-22T08:32:51;100187.47;;;31.30;25.36
42761;BME280;31672;47.638;19.026;2022-07-22T08:37:54;100188.28;;;31.44;24.70
42761;BME280;31672;47.638;19.026;2022-07-22T08:42:57;100181.84;;;31.63;24.64
42761;BME280;31672;47.638;19.026;2022-07-22T08:48:03;100186.16;;;31.78;25.23
42761;BME280;31672;47.638;19.026;2022-07-22T08:53:11;100182.47;;;31.96;25.55
42761;BME280;31672;47.638;19.026;2022-07-22T08:58:15;100188.22;;;32.08;25.05
42761;BME280;31672;47.638;19.026;2022-07-22T09:03:24;100183.63;;;32.17;24.19
42761;BME280;31672;47.638;19.026;2022-07-22T09:09:05;100182.56;;;32.27;24.75
42761;BME280;31672;47.638;19.026;2022-07-22T09:14:15;100170.41;;;32.42;24.31
42761;BME280;31672;47.638;19.026;2022-07-22T09:19:32;100169.38;;;32.60;24.04
42761;BME280;31672;47.638;19.026;2022-07-22T09:24:36;100167.31;;;32.74;23.61
42761;BME280;31672;47.638;19.026;2022-07-22T09:29:49;100156.69;;;32.82;23.11
42761;BME280;31672;47.638;19.026;2022-07-22T09:35:03;100157.28;;;33.01;23.26
42761;BME280;31672;47.638;19.026;2022-07-22T09:40:19;100159.19;;;33.40;23.47
42761;BME280;31672;47.638;19.026;2022-07-22T09:45:26;100152.72;;;33.62;22.50
42761;BME280;31672;47.638;19.026;2022-07-22T09:50:34;100144.66;;;33.83;22.87
42761;BME280;31672;47.638;19.026;2022-07-22T09:55:40;100135.25;;;34.10;22.66
42761;BME280;31672;47.638;19.026;2022-07-22T10:00:44;100126.09;;;34.35;21.96
42761;BME280;31672;47.638;19.026;2022-07-22T10:05:47;100119.59;;;34.40;21.90
42761;BME280;31672;47.638;19.026;2022-07-22T10:10:52;100120.94;;;34.72;21.81
42761;BME280;31672;47.638;19.026;2022-07-22T10:15:56;100119.19;;;35.06;21.20
42761;BME280;31672;47.638;19.026;2022-07-22T10:21:06;100106.91;;;35.24;20.71
42761;BME280;31672;47.638;19.026;2022-07-22T10:26:10;100102.00;;;35.30;21.05
42761;BME280;31672;47.638;19.026;2022-07-22T10:31:20;100100.09;;;35.51;20.84
42761;BME280;31672;47.638;19.026;2022-07-22T10:36:39;100091.63;;;35.69;21.29
42761;BME280;31672;47.638;19.026;2022-07-22T10:41:46;100087.84;;;35.73;20.88
42761;BME280;31672;47.638;19.026;2022-07-22T10:46:57;100093.03;;;35.96;21.18
42761;BME280;31672;47.638;19.026;2022-07-22T10:57:31;100067.63;;;36.27;20.56
42761;BME280;31672;47.638;19.026;2022-07-22T11:02:40;100063.91;;;36.43;20.34
42761;BME280;31672;47.638;19.026;2022-07-22T11:07:45;100070.81;;;36.62;21.47
42761;BME280;31672;47.638;19.026;2022-07-22T11:12:50;100069.66;;;37.00;20.53
42761;BME280;31672;47.638;19.026;2022-07-22T11:17:57;100067.75;;;37.28;20.02
42761;BME280;31672;47.638;19.026;2022-07-22T11:23:00;100064.53;;;37.38;20.32
42761;BME280;31672;47.638;19.026;2022-07-22T11:28:04;100049.66;;;37.59;20.46
42761;BME280;31672;47.638;19.026;2022-07-22T11:33:09;100049.59;;;37.83;19.55
42761;BME280;31672;47.638;19.026;2022-07-22T11:38:13;100031.28;;;37.94;19.28
42761;BME280;31672;47.638;19.026;2022-07-22T11:43:16;100038.88;;;37.97;20.00
42761;BME280;31672;47.638;19.026;2022-07-22T11:48:20;100031.38;;;38.14;20.20
42761;BME280;31672;47.638;19.026;2022-07-22T11:53:24;100020.03;;;38.35;19.82
42761;BME280;31672;47.638;19.026;2022-07-22T12:03:52;100019.38;;;38.73;19.63
42761;BME280;31672;47.638;19.026;2022-07-22T12:09:08;100017.56;;;38.80;19.47
42761;BME280;31672;47.638;19.026;2022-07-22T12:14:19;100010.56;;;38.87;19.36
42761;BME280;31672;47.638;19.026;2022-07-22T12:19:24;100000.41;;;38.75;18.74
42761;BME280;31672;47.638;19.026;2022-07-22T12:24:39;99990.69;;;38.85;18.89
42761;BME280;31672;47.638;19.026;2022-07-22T12:29:48;99986.22;;;38.80;18.56
42761;BME280;31672;47.638;19.026;2022-07-22T12:34:57;99976.59;;;38.93;18.56
42761;BME280;31672;47.638;19.026;2022-07-22T12:40:17;99978.34;;;39.01;18.39
42761;BME280;31672;47.638;19.026;2022-07-22T12:45:20;99965.09;;;39.30;19.00
42761;BME280;31672;47.638;19.026;2022-07-22T12:55:34;99957.75;;;39.60;18.79
42761;BME280;31672;47.638;19.026;2022-07-22T13:00:44;99961.06;;;39.70;18.74
42761;BME280;31672;47.638;19.026;2022-07-22T13:05:55;99963.56;;;39.75;18.78
42761;BME280;31672;47.638;19.026;2022-07-22T13:10:58;99947.75;;;39.79;18.78
42761;BME280;31672;47.638;19.026;2022-07-22T13:16:01;99946.25;;;39.85;18.60
42761;BME280;31672;47.638;19.026;2022-07-22T13:21:05;99950.34;;;39.91;18.45
42761;BME280;31672;47.638;19.026;2022-07-22T13:26:08;99945.88;;;39.64;18.73
42761;BME280;31672;47.638;19.026;2022-07-22T13:31:11;99942.56;;;39.35;19.07
42761;BME280;31672;47.638;19.026;2022-07-22T13:36:14;99926.75;;;39.00;19.65
42761;BME280;31672;47.638;19.026;2022-07-22T13:41:18;99918.84;;;38.83;19.35
42761;BME280;31672;47.638;19.026;2022-07-22T13:46:21;99921.25;;;39.04;19.86
42761;BME280;31672;47.638;19.026;2022-07-22T13:51:27;99914.09;;;39.22;19.53
42761;BME280;31672;47.638;19.026;2022-07-22T13:56:33;99905.78;;;39.45;18.73
42761;BME280;31672;47.638;19.026;2022-07-22T14:01:37;99911.94;;;39.54;17.14
42761;BME280;31672;47.638;19.026;2022-07-22T14:06:40;99909.09;;;39.74;17.31
42761;BME280;31672;47.638;19.026;2022-07-22T14:11:43;99910.97;;;39.89;17.19
42761;BME280;31672;47.638;19.026;2022-07-22T14:16:46;99902.16;;;40.10;17.02
42761;BME280;31672;47.638;19.026;2022-07-22T14:22:11;99902.44;;;40.28;17.80
42761;BME280;31672;47.638;19.026;2022-07-22T14:27:14;99904.81;;;40.26;17.17
42761;BME280;31672;47.638;19.026;2022-07-22T14:32:17;99899.16;;;39.96;18.53
42761;BME280;31672;47.638;19.026;2022-07-22T14:37:20;99895.19;;;39.74;18.83
42761;BME280;31672;47.638;19.026;2022-07-22T14:42:29;99898.59;;;39.41;18.74
42761;BME280;31672;47.638;19.026;2022-07-22T14:47:31;99898.72;;;38.70;19.59
42761;BME280;31672;47.638;19.026;2022-07-22T14:52:34;99899.09;;;38.18;20.10
42761;BME280;31672;47.638;19.026;2022-07-22T14:57:38;99889.97;;;37.70;20.78
42761;BME280;31672;47.638;19.026;2022-07-22T15:02:41;99900.59;;;37.52;21.33
42761;BME280;31672;47.638;19.026;2022-07-22T15:07:45;99895.53;;;37.70;22.02
42761;BME280;31672;47.638;19.026;2022-07-22T15:12:49;99881.41;;;38.07;21.76
42761;BME280;31672;47.638;19.026;2022-07-22T15:17:52;99878.56;;;38.38;21.42
42761;BME280;31672;47.638;19.026;2022-07-22T15:22:55;99889.72;;;38.58;20.91
42761;BME280;31672;47.638;19.026;2022-07-22T15:28:00;99880.09;;;38.71;20.11
42761;BME280;31672;47.638;19.026;2022-07-22T15:33:23;99875.19;;;38.64;20.21
42761;BME280;31672;47.638;19.026;2022-07-22T15:38:38;99871.84;;;38.74;20.17
42761;BME280;31672;47.638;19.026;2022-07-22T15:43:42;99867.13;;;38.75;20.56
42761;BME280;31672;47.638;19.026;2022-07-22T15:48:47;99869.25;;;38.66;20.22
42761;BME280;31672;47.638;19.026;2022-07-22T15:53:52;99865.44;;;38.35;20.42
42761;BME280;31672;47.638;19.026;2022-07-22T15:59:17;99859.97;;;38.23;20.61
42761;BME280;31672;47.638;19.026;2022-07-22T16:04:37;99877.19;;;38.28;20.18
42761;BME280;31672;47.638;19.026;2022-07-22T16:09:41;99861.78;;;38.50;20.78
42761;BME280;31672;47.638;19.026;2022-07-22T16:14:44;99871.94;;;38.62;20.54
42761;BME280;31672;47.638;19.026;2022-07-22T16:19:47;99859.34;;;38.65;20.32
42761;BME280;31672;47.638;19.026;2022-07-22T16:24:50;99865.97;;;38.60;20.04
42761;BME280;31672;47.638;19.026;2022-07-22T16:29:53;99860.66;;;38.51;19.87
42761;BME280;31672;47.638;19.026;2022-07-22T16:34:55;99864.78;;;38.42;20.11
42761;BME280;31672;47.638;19.026;2022-07-22T16:39:59;99867.56;;;38.26;20.15
42761;BME280;31672;47.638;19.026;2022-07-22T16:45:08;99860.09;;;38.11;20.75
42761;BME280;31672;47.638;19.026;2022-07-22T16:50:11;99859.75;;;37.96;21.21
42761;BME280;31672;47.638;19.026;2022-07-22T16:55:13;99862.19;;;37.82;21.55
42761;BME280;31672;47.638;19.026;2022-07-22T17:00:17;99867.44;;;37.56;21.84
42761;BME280;31672;47.638;19.026;2022-07-22T17:05:20;99861.81;;;37.24;21.83
42761;BME280;31672;47.638;19.026;2022-07-22T17:10:23;99867.22;;;36.89;22.87
42761;BME280;31672;47.638;19.026;2022-07-22T17:15:26;99864.63;;;36.56;23.19
42761;BME280;31672;47.638;19.026;2022-07-22T17:20:29;99868.59;;;36.30;23.39
42761;BME280;31672;47.638;19.026;2022-07-22T17:25:31;99879.09;;;36.00;24.09
42761;BME280;31672;47.638;19.026;2022-07-22T17:30:34;99882.16;;;35.74;24.76
42761;BME280;31672;47.638;19.026;2022-07-22T17:35:37;99885.00;;;35.53;24.75
42761;BME280;31672;47.638;19.026;2022-07-22T17:40:44;99881.00;;;35.30;24.80
42761;BME280;31672;47.638;19.026;2022-07-22T17:45:47;99884.50;;;35.06;25.20
42761;BME280;31672;47.638;19.026;2022-07-22T17:50:50;99892.31;;;34.83;25.73
42761;BME280;31672;47.638;19.026;2022-07-22T17:55:55;99892.50;;;34.57;26.52
42761;BME280;31672;47.638;19.026;2022-07-22T18:01:18;99885.38;;;34.26;26.86
42761;BME280;31672;47.638;19.026;2022-07-22T18:06:23;99887.00;;;33.98;27.46
42761;BME280;31672;47.638;19.026;2022-07-22T18:11:27;99893.41;;;33.72;27.99
42761;BME280;31672;47.638;19.026;2022-07-22T18:16:30;99899.81;;;33.47;28.10
42761;BME280;31672;47.638;19.026;2022-07-22T18:21:33;99909.38;;;33.23;28.58
42761;BME280;31672;47.638;19.026;2022-07-22T18:26:36;99912.31;;;33.01;28.75
42761;BME280;31672;47.638;19.026;2022-07-22T18:31:38;99916.31;;;32.78;29.24
42761;BME280;31672;47.638;19.026;2022-07-22T18:36:42;99921.00;;;32.60;29.60
42761;BME280;31672;47.638;19.026;2022-07-22T18:41:45;99915.59;;;32.37;29.93
42761;BME280;31672;47.638;19.026;2022-07-22T18:46:48;99916.19;;;32.17;30.59
42761;BME280;31672;47.638;19.026;2022-07-22T18:52:00;99939.72;;;32.01;30.64
42761;BME280;31672;47.638;19.026;2022-07-22T18:57:03;99940.16;;;31.85;30.84
42761;BME280;31672;47.638;19.026;2022-07-22T19:02:06;99939.22;;;31.67;31.13
42761;BME280;31672;47.638;19.026;2022-07-22T19:07:11;99949.44;;;31.53;31.77
42761;BME280;31672;47.638;19.026;2022-07-22T19:12:13;99948.06;;;31.42;31.97
42761;BME280;31672;47.638;19.026;2022-07-22T19:17:16;99948.97;;;31.29;31.95
42761;BME280;31672;47.638;19.026;2022-07-22T19:22:19;99949.03;;;31.24;32.17
42761;BME280;31672;47.638;19.026;2022-07-22T19:27:23;99962.50;;;31.11;32.29
42761;BME280;31672;47.638;19.026;2022-07-22T19:32:26;99955.63;;;31.00;32.34
42761;BME280;31672;47.638;19.026;2022-07-22T19:37:29;99952.03;;;30.91;32.59
42761;BME280;31672;47.638;19.026;2022-07-22T19:42:32;99957.13;;;30.84;32.34
42761;BME280;31672;47.638;19.026;2022-07-22T19:47:35;99961.09;;;30.78;32.79
42761;BME280;31672;47.638;19.026;2022-07-22T19:52:38;99968.41;;;30.69;33.30
42761;BME280;31672;47.638;19.026;2022-07-22T19:57:42;99974.06;;;30.58;33.61
42761;BME280;31672;47.638;19.026;2022-07-22T20:02:46;99974.31;;;30.48;33.91
42761;BME280;31672;47.638;19.026;2022-07-22T20:07:49;99978.47;;;30.32;34.49
42761;BME280;31672;47.638;19.026;2022-07-22T20:12:52;99981.63;;;30.11;35.06
42761;BME280;31672;47.638;19.026;2022-07-22T20:17:56;99982.75;;;29.92;35.55
42761;BME280;31672;47.638;19.026;2022-07-22T20:22:59;99981.69;;;29.74;36.00
42761;BME280;31672;47.638;19.026;2022-07-22T20:28:02;99985.28;;;29.55;36.22
42761;BME280;31672;47.638;19.026;2022-07-22T20:33:06;99985.28;;;29.37;36.58
42761;BME280;31672;47.638;19.026;2022-07-22T20:38:09;99976.81;;;29.19;37.28
42761;BME280;31672;47.638;19.026;2022-07-22T20:43:14;99981.16;;;29.01;37.80
42761;BME280;31672;47.638;19.026;2022-07-22T20:48:19;99974.53;;;28.84;37.59
42761;BME280;31672;47.638;19.026;2022-07-22T20:53:22;99979.44;;;28.68;38.11
42761;BME280;31672;47.638;19.026;2022-07-22T20:58:28;99977.16;;;28.51;38.12
42761;BME280;31672;47.638;19.026;2022-07-22T21:03:31;99990.72;;;28.37;38.73
42761;BME280;31672;47.638;19.026;2022-07-22T21:08:34;99987.03;;;28.23;38.91
42761;BME280;31672;47.638;19.026;2022-07-22T21:13:37;99986.91;;;28.09;39.81
42761;BME280;31672;47.638;19.026;2022-07-22T21:18:41;99991.13;;;27.96;39.74
42761;BME280;31672;47.638;19.026;2022-07-22T21:23:44;99998.09;;;27.84;40.68
42761;BME280;31672;47.638;19.026;2022-07-22T21:28:47;100004.22;;;27.65;40.86
42761;BME280;31672;47.638;19.026;2022-07-22T21:33:51;100002.66;;;27.54;40.99
42761;BME280;31672;47.638;19.026;2022-07-22T21:38:53;100006.28;;;27.44;40.49
42761;BME280;31672;47.638;19.026;2022-07-22T21:43:57;99998.09;;;27.44;40.82
42761;BME280;31672;47.638;19.026;2022-07-22T21:49:00;100005.16;;;27.45;40.85
42761;BME280;31672;47.638;19.026;2022-07-22T21:54:03;100005.75;;;27.42;40.86
42761;BME280;31672;47.638;19.026;2022-07-22T21:59:06;100009.06;;;27.34;41.23
42761;BME280;31672;47.638;19.026;2022-07-22T22:04:10;100010.53;;;27.21;40.94
42761;BME280;31672;47.638;19.026;2022-07-22T22:09:14;100010.31;;;27.13;41.09
42761;BME280;31672;47.638;19.026;2022-07-22T22:14:18;99999.41;;;27.03;41.10
42761;BME280;31672;47.638;19.026;2022-07-22T22:19:21;99998.66;;;26.92;41.39
42761;BME280;31672;47.638;19.026;2022-07-22T22:24:24;100006.09;;;26.81;41.98
42761;BME280;31672;47.638;19.026;2022-07-22T22:29:27;100015.66;;;26.74;41.92
42761;BME280;31672;47.638;19.026;2022-07-22T22:34:30;100011.09;;;26.59;42.45
42761;BME280;31672;47.638;19.026;2022-07-22T22:39:33;100005.94;;;26.47;42.84
42761;BME280;31672;47.638;19.026;2022-07-22T22:44:36;100007.84;;;26.36;43.10
42761;BME280;31672;47.638;19.026;2022-07-22T22:49:39;100001.34;;;26.27;43.35
42761;BME280;31672;47.638;19.026;2022-07-22T22:54:42;100001.91;;;26.19;43.46
42761;BME280;31672;47.638;19.026;2022-07-22T22:59:45;99998.94;;;26.10;43.29
42761;BME280;31672;47.638;19.026;2022-07-22T23:04:48;100002.47;;;26.11;43.17
42761;BME280;31672;47.638;19.026;2022-07-22T23:09:51;100006.28;;;26.05;42.66
42761;BME280;31672;47.638;19.026;2022-07-22T23:14:54;100005.72;;;26.03;42.71
42761;BME280;31672;47.638;19.026;2022-07-22T23:19:57;100001.94;;;25.94;43.01
42761;BME280;31672;47.638;19.026;2022-07-22T23:25:01;100000.03;;;25.89;43.05
42761;BME280;31672;47.638;19.026;2022-07-22T23:30:04;100003.56;;;25.84;42.87
42761;BME280;31672;47.638;19.026;2022-07-22T23:35:07;99992.16;;;25.77;43.17
42761;BME280;31672;47.638;19.026;2022-07-22T23:40:11;99996.22;;;25.70;43.02
42761;BME280;31672;47.638;19.026;2022-07-22T23:45:17;99991.56;;;25.55;43.49
42761;BME280;31672;47.638;19.026;2022-07-22T23:50:20;99986.44;;;25.43;43.83
42761;BME280;31672;47.638;19.026;2022-07-22T23:55:26;99987.50;;;25.37;44.31
